Time;durP1;ratioP1;P1;durP2;ratioP2;P2;SDS_P1;SDS_P2;PMS_P1;PMS_P2;Temp;Humidity;BMP_temperature;BMP_pressure;BME280_temperature;BME280_humidity;BME280_pressure;Samples;Min_cycle;Max_cycle;Signal;HPM_P1;HPM_P2
2022/01/19 00:01:53;;;;;;;6.68;2.72;;;;;;;6.33;75.08;102607.75;5202634;28;20041;-86
2022/01/19 00:04:24;;;;;;;2.78;2.15;;;;;;;6.36;75.10;102607.84;5182843;28;20475;-86
2022/01/19 00:06:54;;;;;;;1.90;1.80;;;;;;;6.30;74.49;102604.25;5217454;28;20036;-86
2022/01/19 00:09:26;;;;;;;1.85;1.75;;;;;;;6.30;74.35;102596.44;5186793;28;20116;-86
2022/01/19 00:11:56;;;;;;;0.75;0.75;;;;;;;6.25;74.68;102610.22;5217759;28;20036;-86
2022/01/19 00:14:30;;;;;;;1.02;1.02;;;;;;;6.15;74.96;102614.38;5184132;28;20024;-86
2022/01/19 00:17:00;;;;;;;1.00;1.00;;;;;;;5.91;75.01;102601.63;5200925;28;20302;-86
2022/01/19 00:19:30;;;;;;;0.60;0.60;;;;;;;6.15;73.93;102598.72;5188293;28;20029;-86
2022/01/19 00:22:01;;;;;;;0.77;0.77;;;;;;;5.90;73.27;102585.13;5223113;28;20068;-86
2022/01/19 00:24:31;;;;;;;0.70;0.70;;;;;;;5.67;73.94;102571.56;5207090;28;20407;-86
2022/01/19 00:27:02;;;;;;;2.55;1.73;;;;;;;5.94;75.00;102558.28;5205488;28;20343;-86
2022/01/19 00:29:35;;;;;;;1.33;1.33;;;;;;;5.81;74.19;102540.63;5193926;28;20037;-86
2022/01/19 00:32:06;;;;;;;1.52;1.42;;;;;;;5.71;74.16;102523.91;5227866;28;20128;-86
2022/01/19 00:34:37;;;;;;;2.83;1.38;;;;;;;5.68;74.62;102518.66;5224924;28;20573;-86
2022/01/19 00:37:07;;;;;;;1.30;1.30;;;;;;;5.59;74.64;102516.69;5191006;28;20131;-84
2022/01/19 00:39:38;;;;;;;2.60;1.70;;;;;;;5.79;74.73;102529.28;5189415;28;20021;-86
2022/01/19 00:42:08;;;;;;;0.50;0.50;;;;;;;5.64;75.00;102532.41;5223314;28;20029;-87
2022/01/19 00:44:39;;;;;;;0.50;0.50;;;;;;;5.77;74.76;102534.47;5209060;28;20066;-88
2022/01/19 00:47:09;;;;;;;1.20;1.20;;;;;;;5.46;73.61;102540.69;5196612;28;20042;-88
2022/01/19 00:49:42;;;;;;;1.05;1.05;;;;;;;5.57;73.88;102540.94;5191140;28;20501;-88
2022/01/19 00:52:13;;;;;;;0.50;0.50;;;;;;;5.44;74.31;102544.97;5205103;28;20052;-88
2022/01/19 00:54:44;;;;;;;0.40;0.40;;;;;;;5.33;75.04;102557.75;5206784;28;20033;-88
2022/01/19 00:57:14;;;;;;;0.55;0.55;;;;;;;5.40;75.05;102556.19;5184400;28;20056;-88
2022/01/19 00:59:51;;;;;;;0.90;0.90;;;;;;;5.50;74.79;102571.16;5187205;28;20044;-88
2022/01/19 01:02:21;;;;;;;1.20;1.20;;;;;;;5.41;75.08;102570.97;5196065;28;20026;-88
2022/01/19 01:04:52;;;;;;;0.93;0.93;;;;;;;5.38;74.82;102578.69;5227703;28;20371;-88
2022/01/19 01:07:22;;;;;;;0.50;0.50;;;;;;;5.50;74.97;102566.84;5191136;28;20619;-87
2022/01/19 01:09:55;;;;;;;0.50;0.50;;;;;;;5.41;75.58;102577.03;5225624;28;20066;-87
2022/01/19 01:12:42;;;;;;;0.70;0.70;;;;;;;5.55;75.29;102569.56;5217704;28;20061;-88
2022/01/19 01:20:38;;;;;;;1.33;1.27;;;;;;;5.59;75.08;102560.97;5221105;28;20040;-88
2022/01/19 01:23:09;;;;;;;0.90;0.90;;;;;;;5.67;74.90;102563.75;5191196;28;20057;-87
2022/01/19 01:25:43;;;;;;;0.60;0.60;;;;;;;5.66;74.85;102544.63;5215692;28;20033;-88
2022/01/19 01:28:14;;;;;;;1.00;1.00;;;;;;;5.64;75.75;102537.63;5231086;28;20039;-88
2022/01/19 01:30:45;;;;;;;4.95;1.10;;;;;;;5.62;75.88;102534.13;5237489;28;20162;-88
2022/01/19 01:33:16;;;;;;;2.17;2.00;;;;;;;5.58;76.10;102522.75;5185541;28;20295;-87
2022/01/19 01:35:47;;;;;;;0.88;0.88;;;;;;;5.63;75.32;102505.50;5186655;28;20036;-87
2022/01/19 01:38:18;;;;;;;0.88;0.85;;;;;;;5.71;75.44;102491.78;5201309;28;20632;-88
2022/01/19 01:40:49;;;;;;;1.33;1.33;;;;;;;5.65;74.95;102479.50;5189570;28;20079;-88
2022/01/19 01:43:19;;;;;;;0.80;0.80;;;;;;;5.71;74.66;102474.41;5186682;28;20057;-88
2022/01/19 01:45:54;;;;;;;0.90;0.90;;;;;;;5.64;75.23;102491.66;5203427;28;20110;-88
2022/01/19 01:48:25;;;;;;;4.25;1.77;;;;;;;5.64;75.50;102493.34;5183026;28;20017;-88
2022/01/19 01:53:45;;;;;;;0.93;0.93;;;;;;;5.61;74.63;102512.41;5221588;28;20029;-88
2022/01/19 01:56:17;;;;;;;0.90;0.90;;;;;;;5.60;75.44;102508.03;5204267;28;20567;-88
2022/01/19 01:58:48;;;;;;;1.90;1.80;;;;;;;5.66;75.01;102515.13;5213125;28;20495;-87
2022/01/19 02:01:19;;;;;;;3.13;2.15;;;;;;;5.63;75.44;102515.03;5205234;28;20040;-89
2022/01/19 02:03:50;;;;;;;4.50;2.72;;;;;;;5.59;75.18;102506.28;5205235;28;20098;-89
2022/01/19 02:06:31;;;;;;;1.23;1.17;;;;;;;5.57;75.61;102500.19;5188647;28;20048;-89
2022/01/19 02:09:13;;;;;;;1.05;0.85;;;;;;;5.63;74.97;102489.00;5189233;28;20061;-89
2022/01/19 02:23:10;;;;;;;0.60;0.60;;;;;;;5.66;75.26;102426.56;5219232;28;20033;-88
2022/01/19 02:25:43;;;;;;;8.18;1.33;;;;;;;5.68;74.97;102415.31;5197832;28;20538;-88
2022/01/19 02:42:13;;;;;;;1.13;1.13;;;;;;;5.51;75.21;102393.25;5203480;28;20502;-88
2022/01/19 02:49:51;;;;;;;1.73;1.63;;;;;;;5.54;75.04;102398.56;5204753;28;20016;-88
2022/01/19 02:52:23;;;;;;;1.00;1.00;;;;;;;5.57;75.15;102383.00;5187930;28;20577;-88
2022/01/19 02:54:53;;;;;;;1.15;1.08;;;;;;;5.51;74.47;102380.25;5201154;28;20380;-88
2022/01/19 02:57:26;;;;;;;1.15;1.15;;;;;;;5.60;74.85;102374.38;5186233;28;20108;-88
2022/01/19 03:10:56;;;;;;;1.08;1.08;;;;;;;5.44;73.86;102362.75;5221110;28;20033;-88
2022/01/19 03:13:27;;;;;;;1.55;1.45;;;;;;;5.49;74.61;102368.94;5187372;28;20024;-89
2022/01/19 03:15:57;;;;;;;0.73;0.70;;;;;;;5.44;74.79;102358.44;5184720;28;20114;-87
2022/01/19 03:18:28;;;;;;;1.50;1.40;;;;;;;5.49;74.23;102355.94;5186061;28;20041;-87
2022/01/19 03:20:59;;;;;;;1.42;1.42;;;;;;;5.40;74.87;102360.94;5203208;28;20048;-87
2022/01/19 03:23:29;;;;;;;0.60;0.60;;;;;;;5.43;74.15;102356.69;5184914;28;20021;-86
2022/01/19 03:26:06;;;;;;;0.73;0.73;;;;;;;5.45;74.66;102368.00;5210877;28;20048;-89
2022/01/19 03:28:36;;;;;;;1.35;1.30;;;;;;;5.44;74.92;102360.16;5204711;28;20021;-89
2022/01/19 03:31:07;;;;;;;1.63;1.52;;;;;;;5.46;75.33;102361.06;5217574;28;20167;-89
2022/01/19 03:33:38;;;;;;;0.93;0.93;;;;;;;5.49;75.29;102353.31;5205351;28;20094;-89
2022/01/19 03:36:08;;;;;;;5.88;1.63;;;;;;;5.36;74.31;102340.03;5199960;28;20498;-89
2022/01/19 03:38:39;;;;;;;0.93;0.93;;;;;;;5.40;74.77;102335.78;5186775;28;20036;-90
2022/01/19 03:41:10;;;;;;;1.63;1.52;;;;;;;5.39;74.14;102327.94;5201446;28;20029;-89
2022/01/19 03:43:40;;;;;;;2.25;2.05;;;;;;;5.45;73.92;102331.56;5183272;28;20414;-86
2022/01/19 03:46:14;;;;;;;0.82;0.82;;;;;;;5.29;74.56;102332.97;5221292;28;20037;-89
2022/01/19 03:51:20;;;;;;;2.03;1.92;;;;;;;5.32;75.32;102333.03;5225142;28;20216;-89
2022/01/19 03:53:51;;;;;;;0.98;0.98;;;;;;;5.34;75.08;102326.13;5203870;28;20029;-89
2022/01/19 03:56:22;;;;;;;1.13;1.13;;;;;;;5.36;75.19;102319.22;5221503;28;20041;-89
2022/01/19 03:58:55;;;;;;;0.90;0.85;;;;;;;5.39;75.05;102313.19;5227655;28;20417;-89
2022/01/19 04:01:26;;;;;;;1.70;1.63;;;;;;;5.51;74.39;102308.25;5213612;28;20037;-88
2022/01/19 04:04:16;;;;;;;0.50;0.50;;;;;;;5.44;74.73;102308.06;5188994;28;20052;-88
2022/01/19 04:06:57;;;;;;;1.35;1.35;;;;;;;5.41;74.87;102315.84;5200817;28;20037;-89
2022/01/19 04:09:30;;;;;;;0.70;0.70;;;;;;;5.41;75.01;102319.31;5222661;28;20030;-89
2022/01/19 04:12:01;;;;;;;0.80;0.80;;;;;;;5.42;75.60;102323.69;5192805;28;20037;-89
2022/01/19 04:14:33;;;;;;;0.75;0.75;;;;;;;5.39;75.49;102312.31;5202439;28;20032;-89
2022/01/19 04:17:07;;;;;;;1.65;1.55;;;;;;;5.40;75.44;102319.28;5205153;28;20047;-89
2022/01/19 04:22:13;;;;;;;1.48;1.38;;;;;;;5.41;74.92;102313.25;5216968;28;20045;-88
2022/01/19 04:24:48;;;;;;;;;;;;;;;5.42;75.20;102317.56;5190942;28;20037;-88
2022/01/19 04:30:11;;;;;;;2.83;2.10;;;;;;;5.39;75.41;102320.13;5207142;28;20041;-89
2022/01/19 04:35:23;;;;;;;0.60;0.60;;;;;;;5.39;75.27;102307.97;5199916;28;20393;-88
2022/01/19 04:49:12;;;;;;;0.77;0.77;;;;;;;5.42;75.39;102307.16;5206974;28;20025;-89
2022/01/19 05:05:27;;;;;;;0.73;0.73;;;;;;;5.47;75.43;102289.94;5202980;28;20036;-89
2022/01/19 05:13:50;;;;;;;1.23;1.23;;;;;;;5.42;75.49;102265.50;5194922;28;20106;-89
2022/01/19 05:16:22;;;;;;;0.70;0.70;;;;;;;5.41;75.35;102256.84;5193853;28;20468;-89
2022/01/19 05:18:52;;;;;;;1.45;1.25;;;;;;;5.45;75.61;102255.16;5188133;28;20107;-89
2022/01/19 05:21:23;;;;;;;0.98;0.98;;;;;;;5.45;75.33;102249.97;5206029;28;20037;-89
2022/01/19 05:23:53;;;;;;;2.67;2.47;;;;;;;5.45;76.26;102249.97;5223280;28;20031;-89
2022/01/19 05:26:24;;;;;;;0.50;0.50;;;;;;;5.40;75.24;102246.41;5198153;28;20187;-88
2022/01/19 05:28:54;;;;;;;1.63;1.40;;;;;;;5.41;75.81;102242.97;5204191;28;20036;-89
2022/01/19 05:31:26;;;;;;;1.75;1.65;;;;;;;5.47;75.70;102243.06;5201975;28;20036;-88
2022/01/19 05:33:56;;;;;;;0.45;0.45;;;;;;;5.49;75.65;102246.59;5206558;28;20033;-88
2022/01/19 05:36:27;;;;;;;1.02;1.02;;;;;;;5.42;75.63;102239.47;5220387;28;20036;-88
2022/01/19 05:38:58;;;;;;;1.02;1.02;;;;;;;5.43;75.54;102241.25;5204520;28;20053;-88
2022/01/19 05:41:28;;;;;;;1.10;1.10;;;;;;;5.44;75.71;102227.38;5188471;28;20522;-89
2022/01/19 05:43:59;;;;;;;1.02;1.02;;;;;;;5.44;75.91;102227.38;5189043;28;20025;-89
2022/01/19 05:46:29;;;;;;;0.80;0.80;;;;;;;5.44;75.27;102222.16;5186499;28;20060;-89
2022/01/19 05:49:01;;;;;;;6.47;1.83;;;;;;;5.41;75.39;102224.72;5186709;28;20132;-89
2022/01/19 05:51:32;;;;;;;1.25;1.13;;;;;;;5.45;75.71;102218.72;5183387;28;20663;-89
2022/01/19 05:54:03;;;;;;;1.25;1.23;;;;;;;5.43;74.75;102210.91;5193156;28;20032;-88
2022/01/19 05:56:36;;;;;;;0.95;0.95;;;;;;;5.40;75.89;102202.16;5222816;28;20033;-88
2022/01/19 05:59:06;;;;;;;1.25;1.15;;;;;;;5.39;75.67;102195.19;5184477;28;20059;-88
2022/01/19 06:01:37;;;;;;;0.60;0.60;;;;;;;5.34;75.90;102210.72;5192670;28;20102;-88
2022/01/19 06:04:07;;;;;;;6.25;3.58;;;;;;;5.38;75.25;102202.09;5227181;28;20029;-88
2022/01/19 06:06:39;;;;;;;0.88;0.88;;;;;;;5.27;75.68;102199.31;5206532;28;20083;-88
2022/01/19 06:09:21;;;;;;;1.65;1.40;;;;;;;5.32;75.11;102187.28;5190261;28;20025;-89
2022/01/19 06:11:52;;;;;;;1.10;1.10;;;;;;;5.33;75.56;102191.59;5192366;28;20037;-88
2022/01/19 06:14:23;;;;;;;0.77;0.77;;;;;;;5.36;75.53;102194.28;5209675;28;20028;-90
2022/01/19 06:16:53;;;;;;;1.67;1.58;;;;;;;5.35;75.22;102187.31;5191779;28;20103;-89
2022/01/19 06:19:23;;;;;;;0.60;0.60;;;;;;;5.22;75.30;102180.13;5222423;28;20029;-89
2022/01/19 06:21:54;;;;;;;0.50;0.50;;;;;;;5.27;75.90;102173.28;5207867;28;20506;-89
2022/01/19 06:24:25;;;;;;;1.17;1.17;;;;;;;5.33;75.20;102168.19;5215809;28;20052;-90
2022/01/19 06:26:55;;;;;;;0.93;0.93;;;;;;;5.35;75.21;102171.69;5219495;28;20037;-89
2022/01/19 06:29:26;;;;;;;0.82;0.82;;;;;;;5.36;75.33;102170.00;5224044;28;20044;-89
2022/01/19 06:31:56;;;;;;;2.60;1.98;;;;;;;5.29;75.17;102160.31;5188620;28;20040;-89
2022/01/19 06:34:27;;;;;;;0.52;0.52;;;;;;;5.32;75.78;102155.16;5222830;28;20029;-89
2022/01/19 06:36:58;;;;;;;0.75;0.75;;;;;;;5.28;74.92;102158.56;5178471;28;20033;-88
2022/01/19 06:39:28;;;;;;;1.77;1.65;;;;;;;5.30;75.48;102154.25;5189839;28;20021;-89
2022/01/19 06:41:59;;;;;;;0.60;0.60;;;;;;;5.31;75.42;102162.09;5188836;28;20033;-90
2022/01/19 06:44:30;;;;;;;1.08;1.05;;;;;;;5.34;74.94;102156.94;5203945;28;20024;-86
2022/01/19 06:47:00;;;;;;;1.38;1.27;;;;;;;5.28;75.30;102159.44;5186621;28;20041;-86
2022/01/19 06:49:31;;;;;;;0.98;0.95;;;;;;;5.39;75.69;102158.75;5204667;28;20459;-87
2022/01/19 06:52:02;;;;;;;0.60;0.60;;;;;;;5.39;75.78;102162.22;5202074;28;20036;-86
2022/01/19 06:54:35;;;;;;;0.50;0.50;;;;;;;5.39;75.92;102162.22;5221411;28;20021;-86
2022/01/19 06:57:07;;;;;;;0.50;0.50;;;;;;;5.29;75.75;102155.97;5202340;28;20315;-86
2022/01/19 06:59:38;;;;;;;1.52;1.42;;;;;;;5.31;75.46;102154.28;5222775;28;20037;-86
2022/01/19 07:02:09;;;;;;;0.95;0.95;;;;;;;5.36;75.72;102152.63;5231777;28;20044;-85
2022/01/19 07:04:47;;;;;;;0.70;0.70;;;;;;;5.35;75.40;102145.66;5245282;28;20017;-84
2022/01/19 07:07:18;;;;;;;0.90;0.90;;;;;;;5.33;75.58;102147.34;5227147;28;20040;-83
2022/01/19 07:09:50;;;;;;;2.35;2.15;;;;;;;5.36;75.18;102156.97;5221058;28;20029;-87
2022/01/19 07:12:21;;;;;;;1.83;1.73;;;;;;;5.35;75.42;102160.41;5185957;28;20116;-86
2022/01/19 07:14:52;;;;;;;0.40;0.40;;;;;;;5.34;75.59;102159.53;5221378;28;20450;-86
2022/01/19 07:17:22;;;;;;;3.00;1.58;;;;;;;5.29;75.63;102158.59;5203466;28;20044;-86
2022/01/19 07:19:53;;;;;;;1.33;1.23;;;;;;;5.32;76.23;102161.25;5204129;28;20056;-86
2022/01/19 07:22:23;;;;;;;0.52;0.52;;;;;;;5.28;76.02;102149.00;5203641;28;20052;-86
2022/01/19 07:24:54;;;;;;;0.93;0.93;;;;;;;5.28;76.10;102143.81;5220227;28;20029;-85
2022/01/19 07:27:24;;;;;;;0.82;0.82;;;;;;;5.31;75.96;102138.66;5217724;28;20037;-86
2022/01/19 07:29:55;;;;;;;1.17;1.15;;;;;;;5.24;76.11;102141.13;5188419;28;20036;-84
2022/01/19 07:32:30;;;;;;;0.80;0.80;;;;;;;5.28;75.89;102132.53;5203089;28;20428;-87
2022/01/19 07:35:04;;;;;;;0.50;0.50;;;;;;;5.29;76.19;102129.09;5221650;28;20345;-85
2022/01/19 07:37:35;;;;;;;1.13;1.13;;;;;;;5.27;75.87;102123.84;5203824;28;20084;-86
2022/01/19 07:40:06;;;;;;;0.45;0.45;;;;;;;5.29;76.31;102124.75;5220886;28;20075;-86
2022/01/19 07:42:37;;;;;;;0.60;0.60;;;;;;;5.33;75.48;102116.13;5186652;28;20032;-86
2022/01/19 07:45:08;;;;;;;1.40;1.30;;;;;;;5.34;75.90;102112.69;5187617;28;20541;-86
2022/01/19 07:47:39;;;;;;;0.63;0.63;;;;;;;5.40;75.85;102108.44;5197311;28;20574;-86
2022/01/19 07:50:11;;;;;;;0.70;0.70;;;;;;;5.33;74.76;102107.47;5195502;28;20036;-86
2022/01/19 07:52:42;;;;;;;0.98;0.98;;;;;;;5.28;75.15;102111.72;5190083;28;20053;-85
2022/01/19 07:55:13;;;;;;;2.00;1.85;;;;;;;5.26;75.29;102097.78;5186002;28;20021;-85
2022/01/19 07:57:45;;;;;;;0.90;0.82;;;;;;;5.20;75.36;102096.84;5203561;28;20040;-86
2022/01/19 08:00:16;;;;;;;2.15;2.00;;;;;;;5.24;75.64;102104.69;5187617;28;20106;-84
2022/01/19 08:02:49;;;;;;;0.50;0.50;;;;;;;5.25;76.08;102096.91;5188047;28;20033;-86
2022/01/19 08:05:20;;;;;;;0.77;0.77;;;;;;;5.23;75.23;102088.22;5199310;28;20026;-86
2022/01/19 08:07:50;;;;;;;2.75;2.45;;;;;;;5.27;75.77;102084.81;5203971;28;20305;-85
2022/01/19 08:10:21;;;;;;;1.50;1.40;;;;;;;5.24;75.41;102089.06;5188742;28;20043;-85
2022/01/19 08:12:52;;;;;;;2.58;2.35;;;;;;;5.22;75.89;102090.78;5206573;28;20307;-87
2022/01/19 08:15:23;;;;;;;1.73;1.63;;;;;;;5.31;75.53;102088.31;5205095;28;20029;-86
2022/01/19 08:17:53;;;;;;;1.02;1.02;;;;;;;5.30;75.85;102090.06;5221933;28;20044;-87
2022/01/19 08:20:24;;;;;;;1.13;1.13;;;;;;;5.35;74.81;102088.41;5191395;28;20055;-86
2022/01/19 08:22:54;;;;;;;1.35;1.00;;;;;;;5.28;75.39;102086.56;5222142;28;20033;-87
2022/01/19 08:25:25;;;;;;;3.83;1.77;;;;;;;5.28;75.39;102083.94;5219274;28;20437;-87
2022/01/19 08:27:56;;;;;;;1.50;1.40;;;;;;;5.20;74.52;102094.25;5186284;28;20036;-86
2022/01/19 08:30:26;;;;;;;0.77;0.77;;;;;;;5.30;74.54;102090.06;5184724;28;20148;-87
2022/01/19 08:32:57;;;;;;;0.52;0.52;;;;;;;5.21;74.95;102100.31;5196199;28;20522;-87
2022/01/19 08:35:27;;;;;;;0.60;0.60;;;;;;;5.27;75.55;102089.13;5200882;28;20659;-86
2022/01/19 08:37:58;;;;;;;0.77;0.77;;;;;;;5.26;75.60;102088.25;5217696;28;20458;-87
2022/01/19 08:40:30;;;;;;;0.73;0.73;;;;;;;5.30;75.45;102090.06;5223027;28;20043;-86
2022/01/19 08:43:01;;;;;;;1.10;1.10;;;;;;;5.33;75.32;102084.03;5207328;28;20101;-85
2022/01/19 08:45:32;;;;;;;1.55;1.45;;;;;;;5.19;73.47;102081.19;5204487;28;20288;-84
2022/01/19 08:48:03;;;;;;;0.88;0.88;;;;;;;5.30;75.13;102090.06;5223117;28;20047;-85
2022/01/19 08:50:34;;;;;;;0.73;0.73;;;;;;;5.28;75.32;102081.34;5208851;28;20040;-85
2022/01/19 08:53:05;;;;;;;0.50;0.50;;;;;;;5.32;75.51;102085.78;5204130;28;20631;-86
2022/01/19 08:55:36;;;;;;;1.35;1.25;;;;;;;5.34;75.00;102093.59;5222046;28;20032;-86
2022/01/19 08:58:07;;;;;;;0.50;0.50;;;;;;;5.38;74.74;102082.38;5192350;28;20041;-85
2022/01/19 09:00:38;;;;;;;1.85;1.55;;;;;;;5.42;75.43;102085.91;5210797;28;20076;-85
2022/01/19 09:03:08;;;;;;;0.95;0.95;;;;;;;5.38;74.79;102081.50;5188321;28;20148;-86
2022/01/19 09:05:39;;;;;;;1.08;1.08;;;;;;;5.36;74.44;102073.69;5204351;28;20045;-85
2022/01/19 09:08:09;;;;;;;0.82;0.82;;;;;;;5.27;73.55;102066.59;5187427;28;20052;-86
2022/01/19 09:10:41;;;;;;;0.65;0.65;;;;;;;5.26;73.43;102066.56;5206999;28;20040;-86
2022/01/19 09:13:11;;;;;;;0.70;0.70;;;;;;;5.31;74.62;102058.00;5195047;28;20256;-86
2022/01/19 09:15:42;;;;;;;1.45;1.15;;;;;;;5.26;74.73;102046.59;5221073;28;20033;-86
2022/01/19 09:18:13;;;;;;;0.95;0.95;;;;;;;5.36;74.49;102043.31;5205413;28;20121;-86
2022/01/19 09:20:46;;;;;;;0.75;0.75;;;;;;;5.28;74.05;102042.31;5189026;28;20087;-86
2022/01/19 09:23:17;;;;;;;1.13;1.13;;;;;;;5.35;74.64;102041.56;5205348;28;20041;-85
2022/01/19 09:25:50;;;;;;;1.23;1.17;;;;;;;5.34;74.46;102034.59;5187619;28;20039;-86
2022/01/19 09:28:21;;;;;;;1.30;1.02;;;;;;;5.34;74.20;102038.94;5206045;28;20185;-86
2022/01/19 09:30:51;;;;;;;1.30;1.20;;;;;;;5.40;74.82;102043.38;5187040;28;20029;-86
2022/01/19 09:33:24;;;;;;;0.95;0.95;;;;;;;5.35;74.56;102036.34;5204771;28;20029;-86
2022/01/19 09:38:29;;;;;;;;;;;;;;;5.39;75.26;102036.41;5205271;28;20033;-85
2022/01/19 09:41:01;;;;;;;1.23;1.23;;;;;;;5.40;75.34;102028.63;5218415;28;19912;-86
2022/01/19 09:43:32;;;;;;;0.82;0.82;;;;;;;5.39;74.83;102031.19;5188547;28;20453;-86
2022/01/19 09:46:03;;;;;;;1.00;1.00;;;;;;;5.36;73.63;102016.41;5186000;28;20029;-87
2022/01/19 09:48:34;;;;;;;0.75;0.75;;;;;;;5.48;74.65;102015.72;5187368;28;20024;-87
2022/01/19 09:51:05;;;;;;;0.63;0.63;;;;;;;5.40;74.51;102017.34;5200703;28;20029;-85
2022/01/19 09:53:35;;;;;;;1.05;1.05;;;;;;;5.40;74.28;102018.19;5188658;28;20398;-86
2022/01/19 09:56:06;;;;;;;0.82;0.82;;;;;;;5.41;74.20;102008.69;5185587;28;20031;-86
2022/01/19 09:58:37;;;;;;;1.17;1.17;;;;;;;5.29;73.57;102005.03;5188295;28;20020;-85
2022/01/19 10:01:07;;;;;;;0.73;0.73;;;;;;;5.41;73.89;101993.06;5199227;28;20107;-86
2022/01/19 10:03:37;;;;;;;1.30;1.23;;;;;;;5.39;74.36;101990.41;5203936;28;20712;-85
2022/01/19 10:06:09;;;;;;;0.57;0.57;;;;;;;5.44;74.23;101987.88;5202208;28;20060;-85
2022/01/19 10:08:48;;;;;;;1.20;1.20;;;;;;;5.46;75.25;101983.59;5203765;28;20040;-85
2022/01/19 10:11:25;;;;;;;0.98;0.98;;;;;;;5.39;72.97;101989.56;5219791;28;20067;-84
2022/01/19 10:17:09;;;;;;;1.05;1.05;;;;;;;5.45;73.81;101981.84;5202158;28;20476;-88
2022/01/19 10:19:46;;;;;;;1.08;0.98;;;;;;;5.40;73.04;101976.56;5188661;28;20032;-86
2022/01/19 10:22:18;;;;;;;0.65;0.65;;;;;;;5.43;73.30;101965.31;5203773;28;20037;-84
2022/01/19 10:24:50;;;;;;;1.23;1.23;;;;;;;5.45;73.60;101963.59;5204529;28;20135;-85
2022/01/19 10:27:42;;;;;;;0.93;0.93;;;;;;;5.47;72.76;101954.97;5219675;28;20375;-85
2022/01/19 10:30:22;;;;;;;1.00;0.98;;;;;;;5.36;73.19;101949.59;5203964;28;20021;-86
2022/01/19 10:32:56;;;;;;;0.75;0.75;;;;;;;5.45;74.15;101943.69;5201238;28;20506;-85
2022/01/19 10:35:30;;;;;;;0.93;0.93;;;;;;;5.47;73.37;101936.75;5202347;28;20265;-86
2022/01/19 10:38:27;;;;;;;1.58;1.08;;;;;;;5.41;73.57;101939.25;5193994;28;20047;-85
2022/01/19 10:40:58;;;;;;;0.85;0.85;;;;;;;5.52;73.44;101931.59;5212380;28;20343;-84
2022/01/19 10:43:34;;;;;;;1.45;1.42;;;;;;;5.50;73.76;101922.88;5201078;28;20410;-86
2022/01/19 10:46:31;;;;;;;0.63;0.63;;;;;;;5.53;72.09;101924.69;5200034;28;20017;-84
2022/01/19 10:49:10;;;;;;;0.95;0.95;;;;;;;5.62;73.19;101925.66;5243236;28;20044;-85
2022/01/19 10:51:48;;;;;;;0.70;0.70;;;;;;;5.55;73.71;101922.94;5222059;28;20041;-85
2022/01/19 10:54:22;;;;;;;0.82;0.82;;;;;;;5.59;73.50;101920.41;5203831;28;20246;-86
2022/01/19 10:56:54;;;;;;;;;;;;;;;5.44;71.83;101926.31;5216914;28;20342;-85
2022/01/19 10:59:27;;;;;;;1.13;1.13;;;;;;;5.51;73.33;101916.81;5186266;28;20326;-87
2022/01/19 11:02:00;;;;;;;1.70;1.60;;;;;;;5.56;74.19;101915.19;5186570;28;20049;-87
2022/01/19 11:04:33;;;;;;;0.88;0.88;;;;;;;5.45;72.22;101908.94;5203482;28;20021;-87
2022/01/19 11:07:05;;;;;;;;;;;;;;;5.42;72.40;101901.09;5201881;28;20041;-85
2022/01/19 11:09:45;;;;;;;1.88;1.77;;;;;;;5.49;73.04;101900.34;5200342;28;19913;-87
2022/01/19 11:12:19;;;;;;;1.05;1.05;;;;;;;5.49;73.29;101902.94;5186641;28;20040;-87
2022/01/19 11:14:49;;;;;;;;;;;;;;;5.49;72.44;101901.19;5202739;28;20067;-86
2022/01/19 11:17:20;;;;;;;1.42;1.15;;;;;;;5.53;73.46;101883.88;5186152;28;19951;-86
2022/01/19 11:19:50;;;;;;;1.20;1.20;;;;;;;5.52;72.64;101884.72;5203739;28;20078;-86
2022/01/19 11:22:42;;;;;;;0.60;0.60;;;;;;;5.52;73.32;101882.13;5222520;28;20049;-87
2022/01/19 11:25:13;;;;;;;2.45;1.75;;;;;;;5.55;72.77;101876.97;5201640;28;20029;-86
2022/01/19 11:27:46;;;;;;;1.50;1.42;;;;;;;5.51;72.17;101873.47;5186213;28;20514;-87
2022/01/19 11:30:28;;;;;;;0.75;0.75;;;;;;;5.55;72.41;101876.09;5186865;28;20166;-87
2022/01/19 11:33:26;;;;;;;0.70;0.70;;;;;;;5.63;71.98;101872.72;5186407;28;20037;-86
2022/01/19 11:36:01;;;;;;;0.95;0.95;;;;;;;5.55;71.49;101865.66;5218084;28;20390;-86
2022/01/19 11:38:33;;;;;;;0.68;0.68;;;;;;;5.40;71.15;101855.97;5222133;28;20028;-87
2022/01/19 11:41:04;;;;;;;0.93;0.93;;;;;;;5.29;71.23;101842.81;5203711;28;20021;-87
2022/01/19 11:43:47;;;;;;;2.28;2.08;;;;;;;5.46;72.20;101849.09;5185493;28;20033;-86
2022/01/19 11:46:39;;;;;;;1.00;1.00;;;;;;;5.49;72.00;101848.28;5218576;28;20274;-85
2022/01/19 11:49:13;;;;;;;1.08;0.85;;;;;;;5.45;72.23;101833.44;5219713;28;20108;-85
2022/01/19 11:51:55;;;;;;;0.77;0.77;;;;;;;5.40;72.74;101819.53;5220752;28;20435;-86
2022/01/19 11:54:33;;;;;;;1.88;1.77;;;;;;;5.31;72.93;101830.69;5220203;28;20421;-84
2022/01/19 11:57:29;;;;;;;1.67;1.58;;;;;;;5.42;72.40;101813.47;5184326;28;20045;-86
2022/01/19 12:00:09;;;;;;;0.63;0.63;;;;;;;5.38;72.14;101821.22;5221057;28;20025;-86
2022/01/19 12:02:52;;;;;;;2.30;2.20;;;;;;;5.40;73.11;101809.09;5224539;28;20044;-84
2022/01/19 12:05:41;;;;;;;0.95;0.95;;;;;;;5.39;72.84;101799.56;5206748;28;20041;-85
2022/01/19 12:08:18;;;;;;;0.95;0.95;;;;;;;5.50;73.34;101796.22;5186778;28;20728;-84
2022/01/19 12:10:51;;;;;;;1.30;1.30;;;;;;;5.43;72.31;101794.41;5199542;28;20037;-84
2022/01/19 12:13:57;;;;;;;3.83;1.80;;;;;;;5.54;72.53;101791.06;5184468;28;20033;-85
2022/01/19 12:16:51;;;;;;;1.25;1.25;;;;;;;5.48;72.14;101786.66;5219885;28;20554;-87
2022/01/19 12:19:26;;;;;;;1.88;1.77;;;;;;;5.41;72.58;101787.44;5237383;28;20041;-85
2022/01/19 12:22:05;;;;;;;0.50;0.50;;;;;;;5.32;72.24;101786.47;5206863;28;20039;-87
2022/01/19 12:24:44;;;;;;;2.83;1.98;;;;;;;5.43;71.62;101773.56;5209595;28;20522;-91
2022/01/19 12:27:17;;;;;;;1.05;1.05;;;;;;;5.36;72.15;101767.41;5220648;28;20041;-86
2022/01/19 12:30:06;;;;;;;2.22;2.03;;;;;;;5.17;72.12;101763.72;5206090;28;20049;-84
2022/01/19 12:32:55;;;;;;;2.15;2.05;;;;;;;5.20;72.27;101768.09;5188584;28;20037;-88
2022/01/19 12:35:35;;;;;;;0.70;0.70;;;;;;;5.24;72.14;101769.91;5186806;28;20033;-85
2022/01/19 12:38:18;;;;;;;1.25;1.25;;;;;;;5.32;72.80;101762.16;5222680;28;20072;-88
2022/01/19 12:40:55;;;;;;;1.95;1.85;;;;;;;5.27;72.00;101759.50;5189055;28;20040;-87
2022/01/19 12:43:28;;;;;;;1.52;1.42;;;;;;;5.22;72.06;101763.78;5203116;28;20021;-86
2022/01/19 12:46:00;;;;;;;1.45;1.38;;;;;;;5.38;72.53;101756.16;5201083;28;20214;-86
2022/01/19 12:48:33;;;;;;;0.70;0.70;;;;;;;5.24;72.39;101751.69;5189165;28;20072;-86
2022/01/19 12:51:05;;;;;;;1.20;1.20;;;;;;;5.33;72.76;101748.28;5221800;28;20017;-85
2022/01/19 12:53:41;;;;;;;1.23;1.17;;;;;;;5.31;72.33;101743.09;5204886;28;20111;-83
2022/01/19 12:56:12;;;;;;;1.33;1.30;;;;;;;5.27;72.65;101746.50;5188023;28;20037;-87
2022/01/19 12:58:42;;;;;;;2.08;1.88;;;;;;;5.34;71.95;101743.09;5205628;28;20032;-87
2022/01/19 13:01:13;;;;;;;1.90;1.77;;;;;;;5.35;72.74;101737.03;5188569;28;20036;-85
2022/01/19 13:03:45;;;;;;;1.35;1.27;;;;;;;5.42;72.35;101729.28;5203831;28;20025;-84
2022/01/19 13:06:17;;;;;;;1.47;1.47;;;;;;;5.33;71.26;101725.72;5220155;28;20041;-85
2022/01/19 13:09:04;;;;;;;5.90;1.58;;;;;;;5.42;72.70;101719.78;5188657;28;20097;-86
2022/01/19 13:14:08;;;;;;;1.48;1.45;;;;;;;5.35;72.59;101716.22;5205257;28;20052;-85
2022/01/19 13:16:46;;;;;;;0.88;0.88;;;;;;;5.23;73.12;101713.50;5189365;28;20045;-86
2022/01/19 13:19:20;;;;;;;1.08;1.00;;;;;;;5.34;73.08;101719.69;5188890;28;20717;-86
2022/01/19 13:22:01;;;;;;;0.50;0.50;;;;;;;5.29;72.59;101717.91;5202366;28;20532;-86
2022/01/19 13:24:34;;;;;;;1.70;1.60;;;;;;;5.22;73.20;101722.16;5181561;28;20037;-86
2022/01/19 13:27:07;;;;;;;1.43;1.33;;;;;;;5.33;72.88;101722.28;5185798;28;20025;-87
2022/01/19 13:29:42;;;;;;;;;;;;;;;5.22;72.86;101714.34;5205573;28;20568;-86
2022/01/19 13:32:14;;;;;;;0.70;0.70;;;;;;;5.20;72.75;101708.25;5194690;28;19975;-86
2022/01/19 13:34:58;;;;;;;1.00;1.00;;;;;;;5.18;73.26;101704.75;5181699;28;20033;-87
2022/01/19 13:37:51;;;;;;;0.60;0.60;;;;;;;5.16;73.77;101696.09;5175129;28;20045;-86
2022/01/19 13:40:30;;;;;;;1.20;1.15;;;;;;;5.18;74.07;101691.75;5187752;28;20124;-86
2022/01/19 13:43:08;;;;;;;0.80;0.80;;;;;;;5.09;74.62;101695.13;5187077;28;20403;-87